createdAt,value
2022-08-24T00:02:21.467Z,4.88
2022-08-24T00:07:27.570Z,4.78
2022-08-24T00:12:32.186Z,4.97
2022-08-24T00:17:34.343Z,5.28
2022-08-24T00:22:36.854Z,5.20
2022-08-24T00:27:40.890Z,6.55
2022-08-24T00:32:44.728Z,6.13
2022-08-24T00:37:48.739Z,5.72
2022-08-24T00:42:51.669Z,5.45
2022-08-24T00:47:59.054Z,5.53
2022-08-24T00:53:06.201Z,6.35
2022-08-24T00:58:17.145Z,5.95
2022-08-24T01:03:22.504Z,5.03
2022-08-24T01:08:25.416Z,4.97
2022-08-24T01:13:29.088Z,5.60
2022-08-24T01:18:49.837Z,5.45
2022-08-24T01:23:58.200Z,5.60
2022-08-24T01:29:05.362Z,6.80
2022-08-24T01:34:08.377Z,6.47
2022-08-24T01:39:15.199Z,5.85
2022-08-24T01:44:18.364Z,5.57
2022-08-24T01:49:23.120Z,5.50
2022-08-24T01:54:25.830Z,5.72
2022-08-24T01:59:28.663Z,6.03
2022-08-24T02:04:33.484Z,6.97
2022-08-24T02:09:37.034Z,6.75
2022-08-24T02:14:39.827Z,6.40
2022-08-24T02:19:41.969Z,6.82
2022-08-24T02:24:44.051Z,7.70
2022-08-24T02:29:46.829Z,7.60
2022-08-24T02:34:49.117Z,7.57
2022-08-24T02:39:52.465Z,6.70
2022-08-24T02:44:56.823Z,6.85
2022-08-24T02:50:01.424Z,7.63
2022-08-24T02:55:04.573Z,7.78
2022-08-24T03:00:10.911Z,7.55
2022-08-24T03:05:18.193Z,8.30
2022-08-24T03:10:21.311Z,8.38
2022-08-24T03:15:23.369Z,8.38
2022-08-24T03:20:26.875Z,7.63
2022-08-24T03:25:29.478Z,8.60
2022-08-24T03:30:31.683Z,7.10
2022-08-24T03:35:35.877Z,7.13
2022-08-24T03:40:38.140Z,6.97
2022-08-24T03:45:40.752Z,6.53
2022-08-24T03:50:46.112Z,7.50
2022-08-24T03:55:49.572Z,6.05
2022-08-24T04:00:51.777Z,6.47
2022-08-24T04:05:53.876Z,6.25
2022-08-24T04:10:57.860Z,6.07
2022-08-24T04:16:12.427Z,6.15
2022-08-24T04:21:21.155Z,6.30
2022-08-24T04:26:43.351Z,5.40
2022-08-24T04:31:48.559Z,4.97
2022-08-24T04:36:51.122Z,4.82
2022-08-24T04:41:53.711Z,4.43
2022-08-24T04:46:56.714Z,5.13
2022-08-24T04:51:58.983Z,5.28
2022-08-24T04:57:01.369Z,5.72
2022-08-24T05:02:03.669Z,5.65
2022-08-24T05:07:06.401Z,6.07
2022-08-24T05:12:08.996Z,6.57
2022-08-24T05:17:14.915Z,5.75
2022-08-24T05:22:18.092Z,6.90
2022-08-24T05:27:25.209Z,7.22
2022-08-24T05:32:27.479Z,8.00
2022-08-24T05:37:31.581Z,7.60
2022-08-24T05:42:54.067Z,8.05
2022-08-24T05:47:57.505Z,8.70
2022-08-24T05:53:17.920Z,8.80
2022-08-24T05:58:27.152Z,12.32
2022-08-24T06:03:34.035Z,11.50
2022-08-24T06:08:43.385Z,12.35
2022-08-24T06:13:46.847Z,13.20
2022-08-24T06:18:57.432Z,13.93
2022-08-24T06:24:03.625Z,10.68
2022-08-24T06:29:07.366Z,10.85
2022-08-24T06:34:18.347Z,10.85
2022-08-24T06:39:20.800Z,12.88
2022-08-24T06:44:23.147Z,13.50
2022-08-24T06:49:37.876Z,13.77
2022-08-24T06:54:40.200Z,13.00
2022-08-24T06:59:44.140Z,12.45
2022-08-24T07:04:46.748Z,12.48
2022-08-24T07:10:11.382Z,12.93
2022-08-24T07:15:16.400Z,12.27
2022-08-24T07:20:22.065Z,12.15
2022-08-24T07:25:39.043Z,12.88
2022-08-24T07:30:44.076Z,11.60
2022-08-24T07:35:48.531Z,11.63
2022-08-24T07:41:14.276Z,9.82
2022-08-24T07:46:13.559Z,10.63
2022-08-24T07:51:18.136Z,9.65
2022-08-24T07:56:20.512Z,10.25
2022-08-24T08:01:24.528Z,10.57
2022-08-24T08:06:28.064Z,9.07
2022-08-24T08:11:35.203Z,9.85
2022-08-24T08:16:40.712Z,8.85
2022-08-24T08:22:04.197Z,7.00
2022-08-24T08:27:11.496Z,6.32
2022-08-24T08:32:17.039Z,3.47
2022-08-24T08:37:20.382Z,4.10
2022-08-24T08:42:33.103Z,4.05
2022-08-24T08:48:13.746Z,3.95
2022-08-24T08:53:40.783Z,4.40
2022-08-24T08:59:21.692Z,4.00
2022-08-24T09:04:59.012Z,4.55
2022-08-24T09:10:23.886Z,4.00
2022-08-24T09:15:34.744Z,3.70
2022-08-24T09:26:03.466Z,4.05
2022-08-24T09:31:20.342Z,2.80
2022-08-24T09:36:43.784Z,2.60
2022-08-24T09:42:06.996Z,3.13
2022-08-24T09:47:24.366Z,2.40
2022-08-24T09:52:50.719Z,2.30
2022-08-24T09:58:06.734Z,2.50
2022-08-24T10:03:45.163Z,3.20
2022-08-24T10:08:50.043Z,2.45
2022-08-24T10:14:16.892Z,1.95
2022-08-24T10:19:51.440Z,2.10
2022-08-24T10:25:09.081Z,2.30
2022-08-24T10:30:33.824Z,1.90
2022-08-24T10:36:07.523Z,1.70
2022-08-24T10:41:28.309Z,1.60
2022-08-24T10:46:58.847Z,1.67
2022-08-24T10:52:44.983Z,1.95
2022-08-24T10:58:00.191Z,1.58
2022-08-24T11:03:27.986Z,1.63
2022-08-24T11:08:34.627Z,1.50
2022-08-24T11:13:49.037Z,2.05
2022-08-24T11:18:56.924Z,1.63
2022-08-24T11:24:04.840Z,1.42
2022-08-24T11:29:06.884Z,1.38
2022-08-24T11:34:14.268Z,0.90
2022-08-24T11:39:37.079Z,1.10
2022-08-24T11:44:50.992Z,1.15
2022-08-24T11:50:19.028Z,1.30
2022-08-24T11:55:46.687Z,1.35
2022-08-24T12:00:57.148Z,1.45
2022-08-24T12:06:09.395Z,1.60
2022-08-24T12:12:04.146Z,1.60
2022-08-24T12:17:39.487Z,1.48
2022-08-24T12:22:42.691Z,1.45
2022-08-24T12:27:44.818Z,1.63
2022-08-24T12:33:01.073Z,1.63
2022-08-24T12:38:23.367Z,1.33
2022-08-24T12:43:36.093Z,1.40
2022-08-24T12:49:02.542Z,1.65
2022-08-24T12:54:40.041Z,1.58
2022-08-24T12:59:49.123Z,1.50
2022-08-24T13:04:51.146Z,1.30
2022-08-24T13:09:56.072Z,1.52
2022-08-24T13:15:23.678Z,1.13
2022-08-24T13:20:38.909Z,1.10
2022-08-24T13:25:46.949Z,1.35
2022-08-24T13:31:03.119Z,1.50
2022-08-24T13:36:28.781Z,1.20
2022-08-24T13:41:49.539Z,1.50
2022-08-24T13:47:02.647Z,1.25
2022-08-24T13:52:32.068Z,1.40
2022-08-24T13:57:42.100Z,1.03
2022-08-24T14:02:59.978Z,1.20
2022-08-24T14:08:40.416Z,0.95
2022-08-24T14:13:49.392Z,0.90
2022-08-24T14:19:09.420Z,1.08
2022-08-24T14:24:25.468Z,1.05
2022-08-24T14:30:13.501Z,1.02
2022-08-24T14:35:25.995Z,0.90
2022-08-24T14:40:49.715Z,0.70
2022-08-24T14:46:13.030Z,1.38
2022-08-24T14:51:40.139Z,0.90
2022-08-24T14:57:07.099Z,1.33
2022-08-24T15:02:31.158Z,1.60
2022-08-24T15:07:35.253Z,1.30
2022-08-24T15:12:52.772Z,1.40
2022-08-24T15:18:06.646Z,1.88
2022-08-24T15:23:35.657Z,1.73
2022-08-24T15:28:38.054Z,1.77
2022-08-24T15:34:00.789Z,1.63
2022-08-24T15:39:05.636Z,2.17
2022-08-24T15:44:24.585Z,2.00
2022-08-24T15:49:36.690Z,1.35
2022-08-24T15:54:48.108Z,1.98
2022-08-24T15:59:52.852Z,1.80
2022-08-24T16:05:24.081Z,1.42
2022-08-24T16:10:33.987Z,1.33
2022-08-24T16:15:48.724Z,1.20
2022-08-24T16:20:50.976Z,1.40
2022-08-24T16:26:18.652Z,1.33
2022-08-24T16:31:48.143Z,1.50
2022-08-24T16:36:50.263Z,1.42
2022-08-24T16:41:56.062Z,1.42
2022-08-24T16:46:58.162Z,1.50
2022-08-24T16:52:03.163Z,1.45
2022-08-24T16:57:13.195Z,1.40
2022-08-24T17:02:16.974Z,1.35
2022-08-24T17:07:26.429Z,1.40
2022-08-24T17:12:28.711Z,1.77
2022-08-24T17:17:31.794Z,1.40
2022-08-24T17:22:33.784Z,1.40
2022-08-24T17:27:35.779Z,1.42
2022-08-24T17:32:37.843Z,1.20
2022-08-24T17:37:40.294Z,1.42
2022-08-24T17:42:51.539Z,1.38
2022-08-24T17:47:54.389Z,1.67
2022-08-24T17:52:58.999Z,1.80
2022-08-24T17:58:08.511Z,1.40
2022-08-24T18:03:15.987Z,1.50
2022-08-24T18:08:18.577Z,1.70
2022-08-24T18:13:20.746Z,1.70
2022-08-24T18:18:22.805Z,1.40
2022-08-24T18:23:24.923Z,1.48
2022-08-24T18:28:27.064Z,1.88
2022-08-24T18:33:29.520Z,1.70
2022-08-24T18:38:33.690Z,2.42
2022-08-24T18:43:36.524Z,2.30
2022-08-24T18:48:38.631Z,2.03
2022-08-24T18:53:40.828Z,1.67
2022-08-24T18:58:42.829Z,1.67
2022-08-24T19:03:45.295Z,1.80
2022-08-24T19:08:47.400Z,1.70
2022-08-24T19:13:49.493Z,1.60
2022-08-24T19:18:52.069Z,1.95
2022-08-24T19:23:54.691Z,2.03
2022-08-24T19:28:57.528Z,1.70
2022-08-24T19:34:03.648Z,2.17
2022-08-24T19:39:05.828Z,2.00
2022-08-24T19:44:27.285Z,2.30
2022-08-24T19:49:30.420Z,2.22
2022-08-24T19:54:38.379Z,1.90
2022-08-24T19:59:42.957Z,1.75
2022-08-24T20:04:44.961Z,2.00
2022-08-24T20:09:47.081Z,2.10
2022-08-24T20:14:49.085Z,1.92
2022-08-24T20:19:51.551Z,1.98
2022-08-24T20:24:54.710Z,2.42
2022-08-24T20:29:58.671Z,2.13
2022-08-24T20:35:01.717Z,2.40
2022-08-24T20:40:04.743Z,1.88
2022-08-24T20:45:08.705Z,2.25
2022-08-24T20:50:10.770Z,2.33
2022-08-24T20:55:14.002Z,2.10
2022-08-24T21:00:18.613Z,2.28
2022-08-24T21:05:21.228Z,2.38
2022-08-24T21:10:26.756Z,2.83
2022-08-24T21:15:29.276Z,2.60
2022-08-24T21:20:32.586Z,2.80
2022-08-24T21:25:35.465Z,2.63
2022-08-24T21:30:37.489Z,2.63
2022-08-24T21:35:39.559Z,2.40
2022-08-24T21:40:43.133Z,2.63
2022-08-24T21:45:46.639Z,2.55
2022-08-24T21:50:48.885Z,2.47
2022-08-24T21:55:54.167Z,2.65
2022-08-24T22:00:58.899Z,2.72
2022-08-24T22:06:01.775Z,2.88
2022-08-24T22:11:05.092Z,2.85
2022-08-24T22:16:07.685Z,2.78
2022-08-24T22:21:16.500Z,2.90
2022-08-24T22:26:18.521Z,2.60
2022-08-24T22:31:27.947Z,2.90
2022-08-24T22:36:30.995Z,2.60
2022-08-24T22:41:33.472Z,2.90
2022-08-24T22:46:36.012Z,2.90
2022-08-24T22:51:38.436Z,2.85
2022-08-24T22:56:44.098Z,2.83
2022-08-24T23:01:48.780Z,3.00
2022-08-24T23:06:51.875Z,3.10
2022-08-24T23:11:54.301Z,3.08
2022-08-24T23:16:56.399Z,2.90
2022-08-24T23:21:58.432Z,3.20
2022-08-24T23:27:01.700Z,3.28
2022-08-24T23:32:04.364Z,3.22
2022-08-24T23:37:06.427Z,2.72
2022-08-24T23:42:08.471Z,3.20
2022-08-24T23:47:10.629Z,2.92
2022-08-24T23:52:26.203Z,3.35
2022-08-24T23:57:29.638Z,3.13
